Create Custom Reports and Graphics: Custom Report

Lodi Weather Stations Latest Observations

Map

15 Minute Data

Lodi West

10 Stations

15 Minute Data | America/Los_Angeles
as of 11/26/20 10:22 AM PST
Station Date Time Temp (°F) Dew Pt (°F) RH (%) Wind Spd (mph) Wind Dir (°) Wind Gust (mph) Latest Rain (In) Daily Rain (In) Daily Min Temp (°F) Daily Max Temp (°F)
Guard Rd (Lodi WSW) 11/26/20 1015 57.1   0.7 28.8   14.3 34   27 9.2   1.8 N | 360 20.1   5.0 0.00 0.00 39.9   4.9 57.4   0.7
Utter - Wilson 11/26/20 1015 58.0   8.0 33.3   12.2 39   45 9.5   2.7 NNW | 341 19.8   7.8 0.00 0.00 42.9   6.9 59.1   7.1
Clarksburg 11/23/20 1130 63.1   2.2 42.0   2.3 46   0 2.6   0.7 WNW | 285 6.6   2.7 0.00 0.00 33.4   3.7 63.4   2.0
Clarksburg-3A2 11/26/20 1015 56.6   4.7 31.4   14.4 38   41 15.4   7.0 NNW | 342 21.4   10.3 0.00 0.00 43.3   7.7 57.1   4.5
Gorter - Wilson 11/26/20 1015 57.3   4.0 32.8   13.8 39   39 9.2   3.0 N | 354 15.6   5.2 0.00 0.00 42.8   10.3 58.4   3.8
Hood 11/26/20 1015 56.7   2.8 31.0   14.9 37   37 7.4   2.8 N | 357 14.4   4.6 0.00 0.00 44.0   8.8 56.9   2.6
Courtland-C3 11/26/20 1015 55.8   2.4 31.8   13.4 40   34 11.2   2.9 NNW | 345 20.6   6.6 0.00 0.00 43.0   4.0 56.7   2.2
Pacific Fruit 11/26/20 1015 57.5   3.5 32.3   13.1 38   34 4.6   0.2 NNW | 345 12.9   2.3 0.00 0.00 44.9   5.2 58.4   3.1
Ryer Island South 11/26/20 1000 56.7   0.8 31.0   11.6 37   24 9.9   3.7 NNW | 346 18.3   5.8 0.00 0.00 44.5   4.2 57.4   0.4
Claussen 11/26/20 1015 55.9   2.8 32.3   13.8 41   22 16.3   8.2 N | 351 26.4   10.6 0.00 0.00 40.1   3.4 56.4   2.7
Max     58.0 33.3 41 16.3 - 26.4 0.00 0.00 44.9 59.1
Avg     56.9 31.6 38 10.3 - 18.8 0.00 - - -
Min     55.8 28.8 34 4.6 - 12.9 0.00 0.00 39.9 56.4

Lodi Central

9 Stations

15 Minute Data | America/Los_Angeles
as of 11/26/20 10:22 AM PST
Station Date Time Temp (°F) Dew Pt (°F) RH (%) Wind Dir (°) Wind Spd (mph) Wind Gust (mph) Latest Rain (In) Daily Rain (In) Daily Min Temp (°F) Daily Max Temp (°F)
Galt West 11/26/20 1015 56.2   2.6 30.1   14.6 37   35 NNW | 341 12.0   7.3 19.4   11.3 0.00 0.00 41.2   4.8 56.5   2.7
Valley Oak 11/26/20 1015 56.6   2.1 26.7   16.5 32   34 NNW | 347 9.8   5.7 21.3   8.3 0.00 0.00 40.0   6.3 57.3   1.9
Thornton 11/26/20 1015 55.5   1.7 28.7   14.4 36   32 NNW | 343 12.0   5.3 20.5   6.7 0.00 0.00 39.7   5.4 56.1   1.6
Kost Rd 11/26/20 1015 56.4   2.2 31.6   13.9 39   34 N | 2 7.0   1.5 13.8   4.2 0.00 0.00 40.5   3.9 57.0   2.3
DeVries Road-North 11/26/20 1015 56.1   1.4 30.8   13.4 38   29 N | 358 6.9   1.0 13.2   3.2 0.00 0.00 41.2   2.4 57.0   1.2
Lodi (LangeTwins) 11/26/20 1015 55.4   0.2 31.4   14.4 40   31 N | 359 8.2   3.9 14.8   6.0 0.00 0.00 39.1   1.7 56.2   0.7
Acampo 11/26/20 1015 55.0   0.3 26.6   16.2 33   31 NNW | 344 8.7   3.5 14.5   6.0 0.00 0.00 31.7   6.0 55.6   0.4
Acampo (Woodbridge) 11/26/20 1015 54.8   0.5 28.7   16.4 36   35 NNW | 339 9.6   3.1 16.7   6.3 0.00 0.00 36.4   3.3 55.6   0.8
Lodi West 11/26/20 1015 55.4   0.2 27.4   14.7 34   27 NNW | 348 3.5   1.6 14.3   0.9 0.00 0.00 40.1   1.9 55.7   0.1
Max     56.6 31.6 40 - 12.0 21.3 0.00 0.00 41.2 57.3
Avg     55.7 29.1 36 - 8.6 16.5 0.00 - - -
Min     54.8 26.6 32 - 3.5 13.2 0.00 0.00 31.7 55.6

Lodi South

18 Stations

15 Minute Data | America/Los_Angeles
as of 11/26/20 10:22 AM PST
Station Date Time Temp (°F) Dew Pt (°F) RH (%) Wind Spd (mph) Wind Dir (°) Wind Gust (mph) Latest Rain (In) Daily Rain (In) Daily Min Temp (°F) Daily Max Temp (°F)
Borden Hills 11/26/20 1015 55.9   0.3 33.0   15.7 42   36 9.8   8.2 NNW | 348 16.0   12.0 0.00 0.00 34.0   6.1 56.8   0.4
Collegeville 11/26/20 1015 56.2   1.7 27.8   17.4 34   29 9.0   1.6 NNW | 348 14.8   0.4 0.00 0.00 31.6   1.6 56.5   1.6
Galt-East 11/26/20 1015 53.9   0.1 30.2   16.5 40   36 8.0   6.5 NNW | 339 14.9   10.9 0.00 0.00 31.8   6.5 54.9   0.5
Escalon 11/26/20 1015 56.3   0.5 31.1   15.2 38   30 3.9   1.6 N | 5 7.7   2.5 0.00 0.00 40.0   6.0 57.0   0.2
Victor - N (Katusha) 11/26/20 1015 53.1   0.9 27.3   16.2 37   31 9.7   7.2 NNW | 339 18.2   12.4 0.00 0.00 38.3   0.7 53.7   1.1
Teresi-Alpine Rd (East Lodi) 11/26/20 1015 54.7   1.0 28.9   15.8 37   30 11.4   6.5 NNW | 345 19.7   11.9 0.00 0.00 37.8   0.6 55.2   1.0
Gilbeau Ranch 11/26/20 1015 55.6   0.9 27.7   17.4 34   36 5.1   3.1 N | 352 12.5   7.9 0.00 0.00 32.6   6.3 56.2   0.7
Linden 11/26/20 1015 55.3   2.0 29.6   16.6 37   29 7.8   4.4 NNW | 342 16.5   9.1 0.00 0.00 30.7   1.8 56.2   1.3
Live Oak 11/26/20 1015 54.5   1.1 28.4   15.5 36   28 9.6   5.2 NNW | 345 16.5   7.4 0.00 0.00 34.6   0.1 55.0   1.1
Lockeford 11/26/20 1015 54.3   0.5 28.3   16.2 37   34 8.5   6.2 NNW | 343 17.2   10.1 0.00 0.00 32.5   4.4 55.5   1.2
Lone Oak-L28 11/26/20 1015 53.1   0.7 31.9   15.1 44   33 11.6   8.4 NNW | 334 18.5   12.1 0.00 0.00 25.8   6.0 53.8   0.6
Colony 1 11/26/20 1015 56.3   1.4 29.3   17.3 35   31 9.6   8.8 NNW | 340 17.7   14.5 0.00 0.00 34.6   3.5 57.2   1.3
Colony 2 11/26/20 1015 56.2   1.2 29.7   16.3 36   35 9.8   7.8 NNW | 329 16.9   12.0 0.00 0.00 32.5   4.8 57.3   1.8
Sheldon 11/26/20 1015 55.0   0.3 29.2   16.0 37   33 11.4   9.4 NNW | 342 18.5   13.4 0.00 0.00 37.1   1.2 55.9   0.9
Sierra Loma-L27 11/26/20 1015 54.8   2.1 31.6   16.1 41   30 10.0   8.8 NNW | 340 17.6   13.7 - 0.00 32.4   6.8 55.7   2.5
Simmerhorn 11/26/20 1015 54.6   0.0 26.5   18.2 34   35 - - - - - 31.6   7.8 55.2   1.2
Sloughhouse 11/26/20 1015 54.7   1.5 27.0   18.5 34   41 5.1   4.8 NNW | 327 15.5   10.1 0.00 0.00 32.8   1.0 55.4   1.8
5 Wells 11/26/20 1015 55.0   1.4 27.8   17.5 35   38 9.6   7.7 NNW | 338 15.9   10.9 0.00 0.00 30.3   7.7 55.6   1.5
Max     56.3 33.0 44 11.6 - 19.7 0.00 0.00 40.0 57.3
Avg     55.0 29.2 37 8.8 - 16.2 0.00 - - -
Min     53.1 26.5 34 3.9 - 7.7 0.00 0.00 25.8 53.7

Latest Observations

Map

Hourly Data